Check out our new PWSWeather beta!
PWSweather.com
Personal Weather Stations
Station Observations
METEOC500
Santo Antonio, FunchalPT 2020

Santo AntonioFunchalPT 2020

Lat: 32.678227, Lon: -16.945054

Elevation: 1669.94751

Station Type: WH Series

High Low Average
Temperature 69.4°F20.8°C 55.4°F13.0°C 60.7°F15.9°C
Dew Point 53.2°F11.8°C 44.6°F7.0°C 48.9°F9.4°C
Winds 17.9 mph 28.8 kmh Calm Calm 4.0 mph SW6.4 kmh SW
Wind Gusts 27.5 mph44.3 kmh 4.9 mph7.9 kmh 11.0 mph17.7 kmh
Humidity 83% 52% 66%
Pressure 30.33 in1027.1 mb 30.20 in1022.7 mb -
Precipitation 0.00 in0.0 mm - -
Hour Temp Dew Point Humidity Winds Wind Gusts Pressure Precip Precip Rate Daily Precip Total
12:11 AM 58.8°F14.9°C 52.7°F11.5°C 80% 1.8 mph NNW2.9 kmh NNW 7.6 mph12.2 kmh 30.22 in1023.4 mb 0.00 in0.0 mm 0.00 in0.0 mm 0.00 in0.0 mm
12:26 AM 58.5°F14.7°C 53.2°F11.8°C 83% 4.9 mph N7.9 kmh N 12.5 mph20.1 kmh 30.22 in1023.4 mb 0.00 in0.0 mm 0.00 in0.0 mm 0.00 in0.0 mm
12:41 AM 57.6°F14.2°C 51.1°F10.6°C 79% 5.4 mph NNW8.7 kmh NNW 10.1 mph16.3 kmh 30.22 in1023.4 mb 0.00 in0.0 mm 0.00 in0.0 mm 0.00 in0.0 mm
12:56 AM 56.8°F13.8°C 50.4°F10.2°C 79% 4.5 mph NNW7.2 kmh NNW 7.6 mph12.2 kmh 30.22 in1023.4 mb 0.00 in0.0 mm 0.00 in0.0 mm 0.00 in0.0 mm
01:11 AM 56.7°F13.7°C 50.5°F10.3°C 80% 6.0 mph N9.7 kmh N 12.5 mph20.1 kmh 30.22 in1023.4 mb 0.00 in0.0 mm 0.00 in0.0 mm 0.00 in0.0 mm
01:26 AM 56.5°F13.6°C 51.1°F10.6°C 82% 3.1 mph NNW5.0 kmh NNW 10.1 mph16.3 kmh 30.22 in1023.4 mb 0.00 in0.0 mm 0.00 in0.0 mm 0.00 in0.0 mm
01:41 AM 56.3°F13.5°C 50.5°F10.3°C 81% 7.6 mph NNW12.2 kmh NNW 12.5 mph20.1 kmh 30.22 in1023.4 mb 0.00 in0.0 mm 0.00 in0.0 mm 0.00 in0.0 mm
01:56 AM 56.5°F13.6°C 50.0°F10.0°C 79% 6.5 mph N10.5 kmh N 12.5 mph20.1 kmh 30.21 in1023.0 mb 0.00 in0.0 mm 0.00 in0.0 mm 0.00 in0.0 mm
02:11 AM 56.8°F13.8°C 49.6°F9.8°C 77% 3.1 mph N5.0 kmh N 10.1 mph16.3 kmh 30.21 in1023.0 mb 0.00 in0.0 mm 0.00 in0.0 mm 0.00 in0.0 mm
02:26 AM 56.7°F13.7°C 49.5°F9.7°C 77% 6.5 mph N10.5 kmh N 12.5 mph20.1 kmh 30.21 in1023.0 mb 0.00 in0.0 mm 0.00 in0.0 mm 0.00 in0.0 mm
02:41 AM 56.3°F13.5°C 49.8°F9.9°C 79% 7.2 mph N11.6 kmh N 10.1 mph16.3 kmh 30.21 in1023.0 mb 0.00 in0.0 mm 0.00 in0.0 mm 0.00 in0.0 mm
02:56 AM 56.3°F13.5°C 49.1°F9.5°C 77% 6.5 mph N10.5 kmh N 10.1 mph16.3 kmh 30.21 in1023.0 mb 0.00 in0.0 mm 0.00 in0.0 mm 0.00 in0.0 mm
03:11 AM 56.7°F13.7°C 48.4°F9.1°C 74% 6.3 mph NNW10.1 kmh NNW 12.5 mph20.1 kmh 30.21 in1023.0 mb 0.00 in0.0 mm 0.00 in0.0 mm 0.00 in0.0 mm
03:26 AM 57.2°F14.0°C 48.2°F9.0°C 72% 6.5 mph NNW10.5 kmh NNW 12.5 mph20.1 kmh 30.21 in1023.0 mb 0.00 in0.0 mm 0.00 in0.0 mm 0.00 in0.0 mm
03:41 AM 57.4°F14.1°C 47.7°F8.7°C 70% 7.2 mph NNW11.6 kmh NNW 12.5 mph20.1 kmh 30.21 in1023.0 mb 0.00 in0.0 mm 0.00 in0.0 mm 0.00 in0.0 mm
03:56 AM 57.2°F14.0°C 48.6°F9.2°C 73% 8.7 mph NNW14.0 kmh NNW 12.5 mph20.1 kmh 30.20 in1022.7 mb 0.00 in0.0 mm 0.00 in0.0 mm 0.00 in0.0 mm
04:11 AM 57.0°F13.9°C 50.2°F10.1°C 78% 4.9 mph N7.9 kmh N 10.1 mph16.3 kmh 30.20 in1022.7 mb 0.00 in0.0 mm 0.00 in0.0 mm 0.00 in0.0 mm
04:26 AM 56.3°F13.5°C 48.2°F9.0°C 74% 4.0 mph NNW6.4 kmh NNW 12.5 mph20.1 kmh 30.21 in1023.0 mb 0.00 in0.0 mm 0.00 in0.0 mm 0.00 in0.0 mm
04:41 AM 56.3°F13.5°C 48.2°F9.0°C 74% 5.4 mph NNW8.7 kmh NNW 7.6 mph12.2 kmh 30.20 in1022.7 mb 0.00 in0.0 mm 0.00 in0.0 mm 0.00 in0.0 mm
04:56 AM 55.9°F13.3°C 48.9°F9.4°C 77% 4.9 mph NNW7.9 kmh NNW 10.1 mph16.3 kmh 30.21 in1023.0 mb 0.00 in0.0 mm 0.00 in0.0 mm 0.00 in0.0 mm
05:11 AM 55.4°F13.0°C 46.9°F8.3°C 73% 5.6 mph NNW9.0 kmh NNW 10.1 mph16.3 kmh 30.21 in1023.0 mb 0.00 in0.0 mm 0.00 in0.0 mm 0.00 in0.0 mm
05:27 AM 55.8°F13.2°C 46.0°F7.8°C 70% 5.4 mph S8.7 kmh S 12.5 mph20.1 kmh 30.22 in1023.4 mb 0.00 in0.0 mm 0.00 in0.0 mm 0.00 in0.0 mm
05:42 AM 56.3°F13.5°C 45.9°F7.7°C 68% 6.9 mph N11.1 kmh N 12.5 mph20.1 kmh 30.22 in1023.4 mb 0.00 in0.0 mm 0.00 in0.0 mm 0.00 in0.0 mm
05:57 AM 56.3°F13.5°C 46.6°F8.1°C 70% 6.0 mph NNW9.7 kmh NNW 12.5 mph20.1 kmh 30.22 in1023.4 mb 0.00 in0.0 mm 0.00 in0.0 mm 0.00 in0.0 mm
06:12 AM 56.1°F13.4°C 46.4°F8.0°C 70% 4.9 mph NNW7.9 kmh NNW 10.1 mph16.3 kmh 30.22 in1023.4 mb 0.00 in0.0 mm 0.00 in0.0 mm 0.00 in0.0 mm
06:27 AM 56.1°F13.4°C 46.0°F7.8°C 69% 4.0 mph NNW6.4 kmh NNW 10.1 mph16.3 kmh 30.22 in1023.4 mb 0.00 in0.0 mm 0.00 in0.0 mm 0.00 in0.0 mm
06:42 AM 56.3°F13.5°C 46.6°F8.1°C 70% 6.9 mph NNW11.1 kmh NNW 12.5 mph20.1 kmh 30.22 in1023.4 mb 0.00 in0.0 mm 0.00 in0.0 mm 0.00 in0.0 mm
06:57 AM 56.3°F13.5°C 44.6°F7.0°C 65% 0.7 mph WNW1.1 kmh WNW 10.1 mph16.3 kmh 30.23 in1023.7 mb 0.00 in0.0 mm 0.00 in0.0 mm 0.00 in0.0 mm
07:12 AM 55.8°F13.2°C 45.3°F7.4°C 68% 3.8 mph NNW6.1 kmh NNW 12.5 mph20.1 kmh 30.23 in1023.7 mb 0.00 in0.0 mm 0.00 in0.0 mm 0.00 in0.0 mm
07:27 AM 56.3°F13.5°C 46.9°F8.3°C 71% 1.8 mph WSW2.9 kmh WSW 12.5 mph20.1 kmh 30.23 in1023.7 mb 0.00 in0.0 mm 0.00 in0.0 mm 0.00 in0.0 mm
07:42 AM 56.1°F13.4°C 46.4°F8.0°C 70% 4.5 mph NW7.2 kmh NW 10.1 mph16.3 kmh 30.24 in1024.0 mb 0.00 in0.0 mm 0.00 in0.0 mm 0.00 in0.0 mm
07:57 AM 55.4°F13.0°C 45.9°F7.7°C 70% 10.1 mph N16.3 kmh N 12.5 mph20.1 kmh 30.24 in1024.0 mb 0.00 in0.0 mm 0.00 in0.0 mm 0.00 in0.0 mm
08:12 AM 56.1°F13.4°C 46.8°F8.2°C 71% 7.6 mph NNW12.2 kmh NNW 12.5 mph20.1 kmh 30.25 in1024.4 mb 0.00 in0.0 mm 0.00 in0.0 mm 0.00 in0.0 mm
08:27 AM 57.0°F13.9°C 48.4°F9.1°C 73% 4.0 mph N6.4 kmh N 10.1 mph16.3 kmh 30.26 in1024.7 mb 0.00 in0.0 mm 0.00 in0.0 mm 0.00 in0.0 mm
08:42 AM 57.7°F14.3°C 48.0°F8.9°C 70% 3.4 mph N5.5 kmh N 7.6 mph12.2 kmh 30.27 in1025.1 mb 0.00 in0.0 mm 0.00 in0.0 mm 0.00 in0.0 mm
08:57 AM 58.3°F14.6°C 48.2°F9.0°C 69% 0.2 mph NW0.3 kmh NW 7.6 mph12.2 kmh 30.27 in1025.1 mb 0.00 in0.0 mm 0.00 in0.0 mm 0.00 in0.0 mm
09:12 AM 59.5°F15.3°C 46.9°F8.3°C 63% 2.2 mph N3.5 kmh N 7.6 mph12.2 kmh 30.28 in1025.4 mb 0.00 in0.0 mm 0.00 in0.0 mm 0.00 in0.0 mm
09:27 AM 61.7°F16.5°C 48.6°F9.2°C 62% 2.9 mph NNE4.7 kmh NNE 4.9 mph7.9 kmh 30.28 in1025.4 mb 0.00 in0.0 mm 0.00 in0.0 mm 0.00 in0.0 mm
09:42 AM 63.3°F17.4°C 47.3°F8.5°C 56% 4.0 mph S6.4 kmh S 7.6 mph12.2 kmh 30.28 in1025.4 mb 0.00 in0.0 mm 0.00 in0.0 mm 0.00 in0.0 mm
09:57 AM 64.8°F18.2°C 48.2°F9.0°C 55% 2.2 mph E3.5 kmh E 12.5 mph20.1 kmh 30.28 in1025.4 mb 0.00 in0.0 mm 0.00 in0.0 mm 0.00 in0.0 mm
10:12 AM 65.8°F18.8°C 49.3°F9.6°C 55% 5.4 mph SW8.7 kmh SW 10.1 mph16.3 kmh 30.29 in1025.7 mb 0.00 in0.0 mm 0.00 in0.0 mm 0.00 in0.0 mm
10:27 AM 67.1°F19.5°C 50.4°F10.2°C 55% 7.8 mph S12.6 kmh S 12.5 mph20.1 kmh 30.28 in1025.4 mb 0.00 in0.0 mm 0.00 in0.0 mm 0.00 in0.0 mm
10:42 AM 67.5°F19.7°C 51.3°F10.7°C 56% 2.2 mph SE3.5 kmh SE 12.5 mph20.1 kmh 30.29 in1025.7 mb 0.00 in0.0 mm 0.00 in0.0 mm 0.00 in0.0 mm
10:57 AM 67.3°F19.6°C 51.4°F10.8°C 57% 0.2 mph SSW0.3 kmh SSW 10.1 mph16.3 kmh 30.29 in1025.7 mb 0.00 in0.0 mm 0.00 in0.0 mm 0.00 in0.0 mm
11:13 AM 67.6°F19.8°C 50.9°F10.5°C 55% 7.2 mph NE11.6 kmh NE 10.1 mph16.3 kmh 30.29 in1025.7 mb 0.00 in0.0 mm 0.00 in0.0 mm 0.00 in0.0 mm
11:28 AM 67.5°F19.7°C 50.2°F10.1°C 54% 1.3 mph NNE2.1 kmh NNE 12.5 mph20.1 kmh 30.29 in1025.7 mb 0.00 in0.0 mm 0.00 in0.0 mm 0.00 in0.0 mm
11:43 AM 67.8°F19.9°C 50.5°F10.3°C 54% 4.7 mph NW7.6 kmh NW 10.1 mph16.3 kmh 30.28 in1025.4 mb 0.00 in0.0 mm 0.00 in0.0 mm 0.00 in0.0 mm
11:58 AM 68.4°F20.2°C 51.1°F10.6°C 54% 1.3 mph NE2.1 kmh NE 7.6 mph12.2 kmh 30.28 in1025.4 mb 0.00 in0.0 mm 0.00 in0.0 mm 0.00 in0.0 mm
12:13 PM 67.5°F19.7°C 50.2°F10.1°C 54% 4.7 mph N7.6 kmh N 10.1 mph16.3 kmh 30.27 in1025.1 mb 0.00 in0.0 mm 0.00 in0.0 mm 0.00 in0.0 mm
12:28 PM 66.6°F19.2°C 49.8°F9.9°C 55% 6.9 mph NE11.1 kmh NE 10.1 mph16.3 kmh 30.27 in1025.1 mb 0.00 in0.0 mm 0.00 in0.0 mm 0.00 in0.0 mm
12:43 PM 66.7°F19.3°C 49.1°F9.5°C 53% 0.2 mph ENE0.3 kmh ENE 10.1 mph16.3 kmh 30.26 in1024.7 mb 0.00 in0.0 mm 0.00 in0.0 mm 0.00 in0.0 mm
12:58 PM 66.9°F19.4°C 50.2°F10.1°C 55% 9.4 mph N15.1 kmh N 10.1 mph16.3 kmh 30.26 in1024.7 mb 0.00 in0.0 mm 0.00 in0.0 mm 0.00 in0.0 mm
01:13 PM 66.9°F19.4°C 48.7°F9.3°C 52% 1.3 mph NE2.1 kmh NE 10.1 mph16.3 kmh 30.25 in1024.4 mb 0.00 in0.0 mm 0.00 in0.0 mm 0.00 in0.0 mm
01:28 PM 67.3°F19.6°C 49.6°F9.8°C 53% 2.5 mph N4.0 kmh N 10.1 mph16.3 kmh 30.24 in1024.0 mb 0.00 in0.0 mm 0.00 in0.0 mm 0.00 in0.0 mm
01:43 PM 67.5°F19.7°C 50.2°F10.1°C 54% 4.5 mph NE7.2 kmh NE 10.1 mph16.3 kmh 30.24 in1024.0 mb 0.00 in0.0 mm 0.00 in0.0 mm 0.00 in0.0 mm
01:58 PM 67.8°F19.9°C 51.1°F10.6°C 55% 0.9 mph SSE1.4 kmh SSE 10.1 mph16.3 kmh 30.24 in1024.0 mb 0.00 in0.0 mm 0.00 in0.0 mm 0.00 in0.0 mm
02:13 PM 69.1°F20.6°C 52.2°F11.2°C 55% 2.5 mph NE4.0 kmh NE 10.1 mph16.3 kmh 30.24 in1024.0 mb 0.00 in0.0 mm 0.00 in0.0 mm 0.00 in0.0 mm
02:28 PM 69.4°F20.8°C 52.2°F11.2°C 54% 5.6 mph NW9.0 kmh NW 10.1 mph16.3 kmh 30.24 in1024.0 mb 0.00 in0.0 mm 0.00 in0.0 mm 0.00 in0.0 mm
02:43 PM 67.8°F19.9°C 52.0°F11.1°C 57% 5.4 mph ESE8.7 kmh ESE 10.1 mph16.3 kmh 30.23 in1023.7 mb 0.00 in0.0 mm 0.00 in0.0 mm 0.00 in0.0 mm
02:58 PM 65.8°F18.8°C 52.0°F11.1°C 61% 0.2 mph NE0.3 kmh NE 7.6 mph12.2 kmh 30.24 in1024.0 mb 0.00 in0.0 mm 0.00 in0.0 mm 0.00 in0.0 mm
03:13 PM 65.5°F18.6°C 51.3°F10.7°C 60% 0.2 mph E0.3 kmh E 4.9 mph7.9 kmh 30.24 in1024.0 mb 0.00 in0.0 mm 0.00 in0.0 mm 0.00 in0.0 mm
03:28 PM 65.7°F18.7°C 50.5°F10.3°C 58% 2.9 mph SW4.7 kmh SW 7.6 mph12.2 kmh 30.24 in1024.0 mb 0.00 in0.0 mm 0.00 in0.0 mm 0.00 in0.0 mm
03:43 PM 65.1°F18.4°C 49.5°F9.7°C 57% 1.6 mph N2.6 kmh N 4.9 mph7.9 kmh 30.24 in1024.0 mb 0.00 in0.0 mm 0.00 in0.0 mm 0.00 in0.0 mm
03:58 PM 64.2°F17.9°C 49.6°F9.8°C 59% 2.5 mph W4.0 kmh W 4.9 mph7.9 kmh 30.24 in1024.0 mb 0.00 in0.0 mm 0.00 in0.0 mm 0.00 in0.0 mm
04:13 PM 63.7°F17.6°C 48.6°F9.2°C 58% 4.5 mph S7.2 kmh S 7.6 mph12.2 kmh 30.25 in1024.4 mb 0.00 in0.0 mm 0.00 in0.0 mm 0.00 in0.0 mm
04:28 PM 63.5°F17.5°C 48.9°F9.4°C 59% Calm Calm 4.9 mph7.9 kmh 30.25 in1024.4 mb 0.00 in0.0 mm 0.00 in0.0 mm 0.00 in0.0 mm
04:44 PM 63.1°F17.3°C 49.5°F9.7°C 61% 3.8 mph S6.1 kmh S 10.1 mph16.3 kmh 30.26 in1024.7 mb 0.00 in0.0 mm 0.00 in0.0 mm 0.00 in0.0 mm
04:59 PM 62.6°F17.0°C 49.5°F9.7°C 62% 2.9 mph NW4.7 kmh NW 15.0 mph24.1 kmh 30.26 in1024.7 mb 0.00 in0.0 mm 0.00 in0.0 mm 0.00 in0.0 mm
05:14 PM 62.2°F16.8°C 49.5°F9.7°C 63% 1.6 mph SE2.6 kmh SE 12.5 mph20.1 kmh 30.26 in1024.7 mb 0.00 in0.0 mm 0.00 in0.0 mm 0.00 in0.0 mm
05:29 PM 62.4°F16.9°C 49.6°F9.8°C 63% Calm Calm 7.6 mph12.2 kmh 30.26 in1024.7 mb 0.00 in0.0 mm 0.00 in0.0 mm 0.00 in0.0 mm
05:44 PM 62.6°F17.0°C 50.7°F10.4°C 65% 0.2 mph W0.3 kmh W 10.1 mph16.3 kmh 30.27 in1025.1 mb 0.00 in0.0 mm 0.00 in0.0 mm 0.00 in0.0 mm
05:59 PM 61.9°F16.6°C 50.7°F10.4°C 67% Calm Calm 12.5 mph20.1 kmh 30.27 in1025.1 mb 0.00 in0.0 mm 0.00 in0.0 mm 0.00 in0.0 mm
06:14 PM 61.3°F16.3°C 50.4°F10.2°C 67% 1.8 mph NE2.9 kmh NE 4.9 mph7.9 kmh 30.27 in1025.1 mb 0.00 in0.0 mm 0.00 in0.0 mm 0.00 in0.0 mm
06:29 PM 60.8°F16.0°C 49.5°F9.7°C 66% Calm Calm 12.5 mph20.1 kmh 30.28 in1025.4 mb 0.00 in0.0 mm 0.00 in0.0 mm 0.00 in0.0 mm
06:44 PM 60.3°F15.7°C 50.0°F10.0°C 69% 0.2 mph NW0.3 kmh NW 10.1 mph16.3 kmh 30.28 in1025.4 mb 0.00 in0.0 mm 0.00 in0.0 mm 0.00 in0.0 mm
06:59 PM 59.7°F15.4°C 50.4°F10.2°C 71% 3.1 mph NNW5.0 kmh NNW 4.9 mph7.9 kmh 30.28 in1025.4 mb 0.00 in0.0 mm 0.00 in0.0 mm 0.00 in0.0 mm
07:14 PM 58.6°F14.8°C 49.3°F9.6°C 71% 3.4 mph N5.5 kmh N 7.6 mph12.2 kmh 30.28 in1025.4 mb 0.00 in0.0 mm 0.00 in0.0 mm 0.00 in0.0 mm
07:29 PM 58.3°F14.6°C 48.2°F9.0°C 69% 4.5 mph NNW7.2 kmh NNW 10.1 mph16.3 kmh 30.29 in1025.7 mb 0.00 in0.0 mm 0.00 in0.0 mm 0.00 in0.0 mm
07:44 PM 58.6°F14.8°C 46.9°F8.3°C 65% 0.9 mph NNW1.4 kmh NNW 10.1 mph16.3 kmh 30.30 in1026.1 mb 0.00 in0.0 mm 0.00 in0.0 mm 0.00 in0.0 mm
07:59 PM 59.4°F15.2°C 48.0°F8.9°C 66% 6.3 mph N10.1 kmh N 12.5 mph20.1 kmh 30.30 in1026.1 mb 0.00 in0.0 mm 0.00 in0.0 mm 0.00 in0.0 mm
08:14 PM 59.5°F15.3°C 48.6°F9.2°C 67% Calm Calm 12.5 mph20.1 kmh 30.30 in1026.1 mb 0.00 in0.0 mm 0.00 in0.0 mm 0.00 in0.0 mm
08:29 PM 59.5°F15.3°C 48.9°F9.4°C 68% 6.9 mph NNW11.1 kmh NNW 10.1 mph16.3 kmh 30.31 in1026.4 mb 0.00 in0.0 mm 0.00 in0.0 mm 0.00 in0.0 mm
08:44 PM 59.7°F15.4°C 49.1°F9.5°C 68% 4.5 mph N7.2 kmh N 12.5 mph20.1 kmh 30.31 in1026.4 mb 0.00 in0.0 mm 0.00 in0.0 mm 0.00 in0.0 mm
08:59 PM 59.7°F15.4°C 48.7°F9.3°C 67% 7.6 mph NNW12.2 kmh NNW 20.1 mph32.3 kmh 30.32 in1026.8 mb 0.00 in0.0 mm 0.00 in0.0 mm 0.00 in0.0 mm
09:14 PM 59.4°F15.2°C 47.7°F8.7°C 65% 13.9 mph NNW22.4 kmh NNW 20.1 mph32.3 kmh 30.32 in1026.8 mb 0.00 in0.0 mm 0.00 in0.0 mm 0.00 in0.0 mm
09:29 PM 59.5°F15.3°C 46.6°F8.1°C 62% 17.9 mph NNW28.8 kmh NNW 22.6 mph36.4 kmh 30.32 in1026.8 mb 0.00 in0.0 mm 0.00 in0.0 mm 0.00 in0.0 mm
09:44 PM 59.9°F15.5°C 46.8°F8.2°C 62% 10.7 mph NW17.2 kmh NW 27.5 mph44.3 kmh 30.32 in1026.8 mb 0.00 in0.0 mm 0.00 in0.0 mm 0.00 in0.0 mm
09:59 PM 59.9°F15.5°C 48.0°F8.9°C 65% 2.5 mph NNE4.0 kmh NNE 27.5 mph44.3 kmh 30.33 in1027.1 mb 0.00 in0.0 mm 0.00 in0.0 mm 0.00 in0.0 mm
10:15 PM 59.7°F15.4°C 46.2°F7.9°C 61% 15.4 mph N24.8 kmh N 25.1 mph40.4 kmh 30.33 in1027.1 mb 0.00 in0.0 mm 0.00 in0.0 mm 0.00 in0.0 mm
10:30 PM 59.7°F15.4°C 45.9°F7.7°C 60% 3.1 mph NNE5.0 kmh NNE 22.6 mph36.4 kmh 30.32 in1026.8 mb 0.00 in0.0 mm 0.00 in0.0 mm 0.00 in0.0 mm
10:45 PM 59.2°F15.1°C 46.9°F8.3°C 64% 4.0 mph NNW6.4 kmh NNW 7.6 mph12.2 kmh 30.33 in1027.1 mb 0.00 in0.0 mm 0.00 in0.0 mm 0.00 in0.0 mm
11:00 PM 58.5°F14.7°C 47.1°F8.4°C 66% 4.0 mph NNW6.4 kmh NNW 10.1 mph16.3 kmh 30.33 in1027.1 mb 0.00 in0.0 mm 0.00 in0.0 mm 0.00 in0.0 mm
11:15 PM 57.9°F14.4°C 46.6°F8.1°C 66% 3.1 mph NNW5.0 kmh NNW 7.6 mph12.2 kmh 30.33 in1027.1 mb 0.00 in0.0 mm 0.00 in0.0 mm 0.00 in0.0 mm
11:30 PM 57.6°F14.2°C 46.2°F7.9°C 66% 2.9 mph NW4.7 kmh NW 7.6 mph12.2 kmh 30.33 in1027.1 mb 0.00 in0.0 mm 0.00 in0.0 mm 0.00 in0.0 mm
11:45 PM 57.9°F14.4°C 46.6°F8.1°C 66% 4.0 mph NW6.4 kmh NW 15.0 mph24.1 kmh 30.33 in1027.1 mb 0.00 in0.0 mm 0.00 in0.0 mm 0.00 in0.0 mm